Time;durP1;ratioP1;P1;durP2;ratioP2;P2;SDS_P1;SDS_P2;PMS_P1;PMS_P2;Temp;Humidity;BMP_temperature;BMP_pressure;BME280_temperature;BME280_humidity;BME280_pressure;Samples;Min_cycle;Max_cycle;Signal;HPM_P1;HPM_P2
2023/04/07 00:04:43;;;;;;;60.70;24.27;;;;;;;;;;10571745;28;20467;-78
2023/04/07 00:09:44;;;;;;;54.53;22.97;;;;;;;;;;10556670;28;20046;-78
2023/04/07 00:14:45;;;;;;;64.00;24.20;;;;;;;;;;10570963;28;20038;-78
2023/04/07 00:19:46;;;;;;;63.47;24.13;;;;;;;;;;10588638;27;20555;-77
2023/04/07 00:24:47;;;;;;;64.57;24.13;;;;;;;;;;10599212;27;20031;-78
2023/04/07 00:29:48;;;;;;;69.17;25.63;;;;;;;;;;10613445;27;20030;-79
2023/04/07 00:34:49;;;;;;;68.53;23.93;;;;;;;;;;10592083;27;20037;-79
2023/04/07 00:39:50;;;;;;;73.10;27.60;;;;;;;;;;10608562;27;20182;-78
2023/04/07 00:44:52;;;;;;;78.70;26.53;;;;;;;;;;10612279;27;20146;-78
2023/04/07 00:49:53;;;;;;;73.43;25.57;;;;;;;;;;10588153;27;20023;-78
2023/04/07 00:54:54;;;;;;;85.37;27.37;;;;;;;;;;10604377;27;20367;-78
2023/04/07 00:59:55;;;;;;;76.97;26.33;;;;;;;;;;10612189;27;20042;-78
2023/04/07 01:05:15;;;;;;;85.73;29.13;;;;;;;;;;10610761;27;20027;-79
2023/04/07 01:10:20;;;;;;;83.23;29.07;;;;;;;;;;10597803;27;20665;-80
2023/04/07 01:15:22;;;;;;;77.93;27.67;;;;;;;;;;10598239;27;20031;-78
2023/04/07 01:20:26;;;;;;;75.00;26.13;;;;;;;;;;10598618;27;20092;-78
2023/04/07 01:25:34;;;;;;;93.37;28.37;;;;;;;;;;10577138;27;20027;-77
2023/04/07 01:30:37;;;;;;;81.90;26.27;;;;;;;;;;10596127;27;20031;-77
2023/04/07 01:35:39;;;;;;;85.70;28.60;;;;;;;;;;10611511;27;20037;-78
2023/04/07 01:40:40;;;;;;;80.77;27.53;;;;;;;;;;10603181;27;20554;-76
2023/04/07 01:45:42;;;;;;;87.50;27.43;;;;;;;;;;10604991;28;20277;-77
2023/04/07 01:50:44;;;;;;;96.17;30.17;;;;;;;;;;10606732;27;20031;-78
2023/04/07 01:55:45;;;;;;;94.57;28.47;;;;;;;;;;10598614;27;20039;-77
2023/04/07 02:00:46;;;;;;;95.50;27.37;;;;;;;;;;10617596;27;20100;-77
2023/04/07 02:05:48;;;;;;;96.80;29.70;;;;;;;;;;10615348;27;20767;-78
2023/04/07 02:10:50;;;;;;;95.67;28.97;;;;;;;;;;10602681;27;20433;-78
2023/04/07 02:15:53;;;;;;;96.57;29.97;;;;;;;;;;10612778;27;20429;-77
2023/04/07 02:20:54;;;;;;;81.00;27.27;;;;;;;;;;10614966;27;20054;-78
2023/04/07 02:25:59;;;;;;;82.47;26.10;;;;;;;;;;10609991;27;20027;-78
2023/04/07 02:31:00;;;;;;;81.07;27.30;;;;;;;;;;10617433;27;20027;-77
2023/04/07 02:36:01;;;;;;;86.77;26.30;;;;;;;;;;10611877;27;20027;-77
2023/04/07 02:41:02;;;;;;;81.93;27.10;;;;;;;;;;10584899;27;20031;-77
2023/04/07 02:46:03;;;;;;;82.13;26.17;;;;;;;;;;10605088;27;20452;-78
2023/04/07 02:51:04;;;;;;;84.67;27.80;;;;;;;;;;10615471;27;20033;-78
2023/04/07 02:56:06;;;;;;;87.03;26.83;;;;;;;;;;10612795;27;20031;-78
2023/04/07 03:01:07;;;;;;;80.63;26.13;;;;;;;;;;10599492;27;20043;-78
2023/04/07 03:06:08;;;;;;;82.47;26.87;;;;;;;;;;10599239;27;20488;-78
2023/04/07 03:11:09;;;;;;;86.27;26.73;;;;;;;;;;10604732;27;20026;-78
2023/04/07 03:16:10;;;;;;;83.47;25.93;;;;;;;;;;10612530;27;20030;-77
2023/04/07 03:21:12;;;;;;;70.43;24.67;;;;;;;;;;10615926;27;20151;-79
2023/04/07 03:26:13;;;;;;;79.07;24.77;;;;;;;;;;10598576;27;20023;-78
2023/04/07 03:31:14;;;;;;;76.33;25.47;;;;;;;;;;10591272;27;20031;-79
2023/04/07 03:36:16;;;;;;;78.63;25.87;;;;;;;;;;10590306;27;20046;-78
2023/04/07 03:41:17;;;;;;;72.50;25.60;;;;;;;;;;10597174;27;20092;-78
2023/04/07 03:46:19;;;;;;;77.67;24.97;;;;;;;;;;10595392;27;20034;-78
2023/04/07 03:51:20;;;;;;;83.03;25.50;;;;;;;;;;10606293;27;20030;-79
2023/04/07 03:56:22;;;;;;;69.73;25.83;;;;;;;;;;10588742;27;20080;-78
2023/04/07 04:01:23;;;;;;;90.90;25.60;;;;;;;;;;10606074;27;20142;-79
2023/04/07 04:06:25;;;;;;;80.87;25.13;;;;;;;;;;10600484;27;20023;-79
2023/04/07 04:11:26;;;;;;;92.27;26.10;;;;;;;;;;10598176;27;20092;-78
2023/04/07 04:16:27;;;;;;;92.93;26.23;;;;;;;;;;10593052;27;20027;-78
2023/04/07 04:21:28;;;;;;;78.20;23.73;;;;;;;;;;10596609;27;20482;-78
2023/04/07 04:26:29;;;;;;;91.20;26.40;;;;;;;;;;10597214;27;20057;-79
2023/04/07 04:31:30;;;;;;;75.73;23.03;;;;;;;;;;10604710;27;20031;-79
2023/04/07 04:36:31;;;;;;;82.03;22.60;;;;;;;;;;10598364;27;20418;-78
2023/04/07 04:41:32;;;;;;;76.73;24.30;;;;;;;;;;10607096;27;20103;-79
2023/04/07 04:46:33;;;;;;;79.37;22.60;;;;;;;;;;10611833;27;20027;-79
2023/04/07 04:51:34;;;;;;;78.10;23.43;;;;;;;;;;10569261;22;20055;-78
2023/04/07 04:56:35;;;;;;;71.47;22.20;;;;;;;;;;10556557;28;20031;-79
2023/04/07 05:01:36;;;;;;;70.83;22.23;;;;;;;;;;10547050;28;20089;-78
2023/04/07 05:06:37;;;;;;;66.63;19.60;;;;;;;;;;10557980;28;20043;-80
2023/04/07 05:11:38;;;;;;;70.77;21.23;;;;;;;;;;10561125;28;20088;-78
2023/04/07 05:16:39;;;;;;;60.17;20.50;;;;;;;;;;10555710;28;20035;-79
2023/04/07 05:21:40;;;;;;;63.77;21.50;;;;;;;;;;10600509;27;20947;-78
2023/04/07 05:26:41;;;;;;;59.40;19.83;;;;;;;;;;10591042;27;20078;-79
2023/04/07 05:31:42;;;;;;;54.50;19.17;;;;;;;;;;10467812;23;20272;-78
2023/04/07 05:36:45;;;;;;;51.53;18.20;;;;;;;;;;10398401;28;20068;-78
2023/04/07 05:41:46;;;;;;;58.40;18.20;;;;;;;;;;10428228;28;20045;-77
2023/04/07 05:46:47;;;;;;;54.70;17.90;;;;;;;;;;10396294;28;20038;-78
2023/04/07 05:51:48;;;;;;;60.33;21.50;;;;;;;;;;10412393;28;20033;-78
2023/04/07 05:56:49;;;;;;;58.57;19.87;;;;;;;;;;10407502;28;20072;-80
2023/04/07 06:01:52;;;;;;;58.97;19.47;;;;;;;;;;10420465;28;20049;-78
2023/04/07 06:06:54;;;;;;;58.57;20.53;;;;;;;;;;10393204;28;20065;-77
2023/04/07 06:11:56;;;;;;;52.80;18.93;;;;;;;;;;10387259;28;20037;-79
2023/04/07 06:16:57;;;;;;;53.03;18.17;;;;;;;;;;10400905;28;20029;-77
2023/04/07 06:21:58;;;;;;;67.23;20.40;;;;;;;;;;10402262;28;20660;-77
2023/04/07 06:27:00;;;;;;;63.90;22.73;;;;;;;;;;10401863;28;20061;-77
2023/04/07 06:32:01;;;;;;;71.70;23.83;;;;;;;;;;10401827;28;20135;-78
2023/04/07 06:37:05;;;;;;;66.53;22.17;;;;;;;;;;10402375;28;20034;-77
2023/04/07 06:42:06;;;;;;;74.33;22.97;;;;;;;;;;10399753;28;20041;-78
2023/04/07 06:47:07;;;;;;;66.77;21.70;;;;;;;;;;10408852;28;20037;-77
2023/04/07 06:52:09;;;;;;;68.80;22.40;;;;;;;;;;10408929;28;20045;-78
2023/04/07 06:57:11;;;;;;;67.97;20.27;;;;;;;;;;10407668;28;20041;-76
2023/04/07 07:02:12;;;;;;;61.37;20.37;;;;;;;;;;10407277;28;20129;-76
2023/04/07 07:07:13;;;;;;;60.27;20.67;;;;;;;;;;10407675;28;20027;-78
2023/04/07 07:12:14;;;;;;;65.43;24.47;;;;;;;;;;10406377;28;20038;-77
2023/04/07 07:17:15;;;;;;;69.53;22.07;;;;;;;;;;10396019;28;20021;-78
2023/04/07 07:22:16;;;;;;;70.90;22.53;;;;;;;;;;10407547;28;20112;-77
2023/04/07 07:27:17;;;;;;;70.47;25.07;;;;;;;;;;10412019;28;20489;-78
2023/04/07 07:32:18;;;;;;;66.33;23.03;;;;;;;;;;10412452;28;20034;-78
2023/04/07 07:37:21;;;;;;;57.50;21.40;;;;;;;;;;10415795;28;20442;-77
2023/04/07 07:42:21;;;;;;;81.27;29.27;;;;;;;;;;10415413;28;20044;-79
2023/04/07 07:47:22;;;;;;;88.17;30.13;;;;;;;;;;10424183;28;20584;-78
2023/04/07 07:52:25;;;;;;;75.30;26.17;;;;;;;;;;10405889;28;20644;-78
2023/04/07 07:57:26;;;;;;;73.30;24.70;;;;;;;;;;10402421;28;20047;-78
2023/04/07 08:02:31;;;;;;;77.07;25.93;;;;;;;;;;10410586;28;20345;-77
2023/04/07 08:07:32;;;;;;;70.25;26.13;;;;;;;;;;10404142;28;20540;-77
2023/04/07 08:12:33;;;;;;;76.33;21.83;;;;;;;;;;10406862;28;20037;-77
2023/04/07 08:17:35;;;;;;;67.40;22.43;;;;;;;;;;10411439;28;20029;-77
2023/04/07 08:22:36;;;;;;;69.23;22.20;;;;;;;;;;10405848;28;20485;-77
2023/04/07 08:27:37;;;;;;;61.90;21.10;;;;;;;;;;10406688;28;20076;-77
2023/04/07 08:32:40;;;;;;;82.20;24.10;;;;;;;;;;10407625;28;20124;-76
2023/04/07 08:37:43;;;;;;;90.37;28.60;;;;;;;;;;10388837;28;20041;-76
2023/04/07 08:42:48;;;;;;;66.30;21.33;;;;;;;;;;10404519;28;20040;-77
2023/04/07 08:47:49;;;;;;;72.37;22.60;;;;;;;;;;10386788;28;20041;-77
2023/04/07 08:52:53;;;;;;;95.10;33.37;;;;;;;;;;10456899;23;20443;-77
2023/04/07 08:57:55;;;;;;;75.03;25.60;;;;;;;;;;10485837;28;20075;-77
2023/04/07 09:02:56;;;;;;;83.13;26.37;;;;;;;;;;10488595;28;20071;-76
2023/04/07 09:07:57;;;;;;;124.23;43.17;;;;;;;;;;10494920;28;20025;-75
2023/04/07 09:12:58;;;;;;;98.10;26.73;;;;;;;;;;10492750;28;20039;-76
2023/04/07 09:17:59;;;;;;;81.37;25.03;;;;;;;;;;10509921;28;20057;-76
2023/04/07 09:23:01;;;;;;;85.27;24.60;;;;;;;;;;10529624;28;20041;-77
2023/04/07 09:28:03;;;;;;;85.33;25.07;;;;;;;;;;10514392;28;20554;-77
2023/04/07 09:33:05;;;;;;;90.13;25.43;;;;;;;;;;10510564;28;20024;-78
2023/04/07 09:38:07;;;;;;;106.43;30.87;;;;;;;;;;10524602;23;20071;-78
2023/04/07 09:43:14;;;;;;;92.93;26.97;;;;;;;;;;10476032;28;20760;-77
2023/04/07 09:48:19;;;;;;;90.77;26.33;;;;;;;;;;10483630;28;20031;-77
2023/04/07 09:53:21;;;;;;;95.17;28.40;;;;;;;;;;10476375;28;20392;-78
2023/04/07 09:58:22;;;;;;;99.53;27.80;;;;;;;;;;10486364;28;20020;-78
2023/04/07 10:03:24;;;;;;;95.03;28.67;;;;;;;;;;10474706;28;20044;-77
2023/04/07 10:08:25;;;;;;;89.13;29.53;;;;;;;;;;10481725;28;20024;-76
2023/04/07 10:13:31;;;;;;;83.17;23.83;;;;;;;;;;10488567;28;20047;-77
2023/04/07 10:18:41;;;;;;;59.35;21.33;;;;;;;;;;10496107;28;20223;-77
2023/04/07 10:23:51;;;;;;;100.53;37.53;;;;;;;;;;10517311;28;20916;-77
2023/04/07 10:28:55;;;;;;;71.87;25.70;;;;;;;;;;10539288;28;20040;-76
2023/04/07 10:33:56;;;;;;;113.23;38.90;;;;;;;;;;10533958;28;20036;-76
2023/04/07 10:39:06;;;;;;;91.70;30.80;;;;;;;;;;10534562;28;20728;-77
2023/04/07 10:44:11;;;;;;;61.70;23.40;;;;;;;;;;10536970;28;20805;-76
2023/04/07 10:49:12;;;;;;;77.40;24.03;;;;;;;;;;10533577;28;20100;-77
2023/04/07 10:54:21;;;;;;;84.30;26.70;;;;;;;;;;10533084;28;20742;-76
2023/04/07 10:59:26;;;;;;;82.97;27.90;;;;;;;;;;10532931;28;20036;-77
2023/04/07 11:04:43;;;;;;;121.87;38.60;;;;;;;;;;10533662;28;20485;-77
2023/04/07 11:09:44;;;;;;;162.87;55.07;;;;;;;;;;10514276;28;20036;-77
2023/04/07 11:20:06;;;;;;;77.87;26.13;;;;;;;;;;10512865;28;20055;-77
2023/04/07 11:25:20;;;;;;;75.37;22.60;;;;;;;;;;10537286;28;20086;-79
2023/04/07 11:30:21;;;;;;;108.17;33.07;;;;;;;;;;10536595;28;20601;-76
2023/04/07 11:35:23;;;;;;;85.97;28.83;;;;;;;;;;10531148;28;20027;-77
2023/04/07 11:40:39;;;;;;;113.77;37.27;;;;;;;;;;10523096;28;20055;-79
2023/04/07 11:45:40;;;;;;;;;;;;;;;;;;10534900;28;20040;-78
2023/04/07 11:50:42;;;;;;;78.30;24.40;;;;;;;;;;10532927;28;19916;-77
2023/04/07 11:55:43;;;;;;;59.40;21.93;;;;;;;;;;10527255;28;20024;-77
2023/04/07 12:00:54;;;;;;;73.30;22.50;;;;;;;;;;10532904;28;20479;-77
2023/04/07 12:05:55;;;;;;;45.97;18.23;;;;;;;;;;10528859;28;20107;-80
2023/04/07 12:11:03;;;;;;;56.53;18.90;;;;;;;;;;10521540;28;20503;-78
2023/04/07 12:16:05;;;;;;;67.87;18.83;;;;;;;;;;10527936;28;20028;-77
2023/04/07 12:21:06;;;;;;;62.43;19.40;;;;;;;;;;10528064;28;20853;-77
2023/04/07 12:26:07;;;;;;;79.93;25.50;;;;;;;;;;10535647;28;20032;-76
2023/04/07 12:31:08;;;;;;;78.40;25.33;;;;;;;;;;10528141;28;20028;-77
2023/04/07 12:36:10;;;;;;;59.03;21.33;;;;;;;;;;10528002;28;20016;-76
2023/04/07 12:41:11;;;;;;;67.00;22.10;;;;;;;;;;10533936;28;20059;-76
2023/04/07 12:46:12;;;;;;;56.93;18.70;;;;;;;;;;10536796;28;20032;-77
2023/04/07 12:51:13;;;;;;;78.87;27.27;;;;;;;;;;10526235;28;20039;-76
2023/04/07 12:56:15;;;;;;;56.60;19.67;;;;;;;;;;10530431;28;20036;-77
2023/04/07 13:01:16;;;;;;;64.70;21.17;;;;;;;;;;10517706;28;20039;-77
2023/04/07 13:06:19;;;;;;;54.40;19.03;;;;;;;;;;10527049;28;20043;-77
2023/04/07 13:11:20;;;;;;;51.97;17.47;;;;;;;;;;10528511;28;20518;-77
2023/04/07 13:16:21;;;;;;;47.60;16.50;;;;;;;;;;10527537;28;20040;-77
2023/04/07 13:21:22;;;;;;;51.50;18.40;;;;;;;;;;10514251;28;20028;-78
2023/04/07 13:26:23;;;;;;;54.70;15.97;;;;;;;;;;10540880;28;20028;-79
2023/04/07 13:31:24;;;;;;;50.37;16.87;;;;;;;;;;10514604;28;20109;-77
2023/04/07 13:36:27;;;;;;;51.90;18.00;;;;;;;;;;10526889;28;20421;-77
2023/04/07 13:41:28;;;;;;;60.77;21.27;;;;;;;;;;10528734;28;20130;-76
2023/04/07 13:46:29;;;;;;;54.37;17.27;;;;;;;;;;10525737;28;20119;-78
2023/04/07 13:51:30;;;;;;;54.70;20.70;;;;;;;;;;10526865;28;20153;-76
2023/04/07 13:56:30;;;;;;;40.20;14.93;;;;;;;;;;10530916;28;20035;-78
2023/04/07 14:01:32;;;;;;;50.07;15.40;;;;;;;;;;10528508;28;20040;-77
2023/04/07 14:06:35;;;;;;;46.87;14.97;;;;;;;;;;10531006;28;20025;-78
2023/04/07 14:11:36;;;;;;;44.97;15.10;;;;;;;;;;10524138;28;20431;-77
2023/04/07 14:16:37;;;;;;;36.37;13.40;;;;;;;;;;10526403;28;20387;-77
2023/04/07 14:21:38;;;;;;;37.60;14.40;;;;;;;;;;10526335;28;20035;-76
2023/04/07 14:26:39;;;;;;;48.00;15.00;;;;;;;;;;10518348;28;20028;-79
2023/04/07 14:31:40;;;;;;;44.63;14.70;;;;;;;;;;10525753;28;20032;-77
2023/04/07 14:36:41;;;;;;;41.57;14.87;;;;;;;;;;10503469;28;20567;-77
2023/04/07 14:41:42;;;;;;;38.73;14.53;;;;;;;;;;10530623;28;20040;-77
2023/04/07 14:46:45;;;;;;;38.80;14.77;;;;;;;;;;10507290;28;20036;-78
2023/04/07 14:51:48;;;;;;;37.07;13.57;;;;;;;;;;10528797;28;20043;-77
2023/04/07 14:56:50;;;;;;;46.97;14.97;;;;;;;;;;10510682;28;20055;-78
2023/04/07 15:01:52;;;;;;;56.57;20.37;;;;;;;;;;10530312;28;20732;-77
2023/04/07 15:06:53;;;;;;;43.97;17.13;;;;;;;;;;10529633;28;20024;-77
2023/04/07 15:11:55;;;;;;;49.93;18.23;;;;;;;;;;10530395;28;20475;-78
2023/04/07 15:16:57;;;;;;;37.80;13.57;;;;;;;;;;10510858;28;20119;-77
2023/04/07 15:21:58;;;;;;;41.83;16.60;;;;;;;;;;10531609;28;20028;-78
2023/04/07 15:26:59;;;;;;;44.37;15.37;;;;;;;;;;10530883;28;20028;-77
2023/04/07 15:32:00;;;;;;;41.90;14.47;;;;;;;;;;10520797;28;20100;-77
2023/04/07 15:37:03;;;;;;;49.13;16.70;;;;;;;;;;10519129;28;20056;-76
2023/04/07 15:42:08;;;;;;;48.17;16.53;;;;;;;;;;10531200;28;20044;-78
2023/04/07 15:47:09;;;;;;;41.63;14.77;;;;;;;;;;10529183;28;20036;-78
2023/04/07 15:52:12;;;;;;;46.33;16.83;;;;;;;;;;10531047;28;20111;-77
2023/04/07 15:57:15;;;;;;;48.97;19.40;;;;;;;;;;10529859;28;20034;-78
2023/04/07 16:02:16;;;;;;;47.43;17.67;;;;;;;;;;10528966;28;20125;-78
2023/04/07 16:07:17;;;;;;;59.97;19.27;;;;;;;;;;10529667;28;20032;-78
2023/04/07 16:12:21;;;;;;;58.77;20.83;;;;;;;;;;10528299;28;20032;-77
2023/04/07 16:17:22;;;;;;;53.13;18.60;;;;;;;;;;10528064;28;20032;-77
2023/04/07 16:22:26;;;;;;;51.27;16.80;;;;;;;;;;10511020;28;20062;-78
2023/04/07 16:27:28;;;;;;;52.73;16.97;;;;;;;;;;10528461;28;20035;-77
2023/04/07 16:32:29;;;;;;;52.87;20.73;;;;;;;;;;10515352;28;20036;-77
2023/04/07 16:37:30;;;;;;;64.63;25.20;;;;;;;;;;10528514;28;20059;-78
2023/04/07 16:42:32;;;;;;;83.80;30.83;;;;;;;;;;10528636;28;20158;-77
2023/04/07 16:47:36;;;;;;;75.70;26.47;;;;;;;;;;10527562;28;20540;-78
2023/04/07 16:52:37;;;;;;;86.47;28.37;;;;;;;;;;10528458;28;20031;-77
2023/04/07 16:57:38;;;;;;;75.87;26.30;;;;;;;;;;10528072;28;20040;-78
2023/04/07 17:02:40;;;;;;;101.67;34.23;;;;;;;;;;10526381;28;20072;-78
2023/04/07 17:07:41;;;;;;;112.07;38.23;;;;;;;;;;10533965;28;20464;-77
2023/04/07 17:12:42;;;;;;;133.70;43.43;;;;;;;;;;10507428;28;20110;-78
2023/04/07 17:17:43;;;;;;;99.93;36.20;;;;;;;;;;10527380;28;20446;-77
2023/04/07 17:22:47;;;;;;;104.47;36.20;;;;;;;;;;10534624;28;20046;-76
2023/04/07 17:27:48;;;;;;;121.87;38.50;;;;;;;;;;10532768;28;20040;-77
2023/04/07 17:32:52;;;;;;;111.10;35.97;;;;;;;;;;10526865;28;20028;-76
2023/04/07 17:37:55;;;;;;;113.33;36.80;;;;;;;;;;10498980;28;20044;-78
2023/04/07 17:42:56;;;;;;;114.37;34.03;;;;;;;;;;10496329;28;20051;-77
2023/04/07 17:47:57;;;;;;;134.63;47.07;;;;;;;;;;10501179;28;20043;-77
2023/04/07 17:52:59;;;;;;;153.50;49.20;;;;;;;;;;10502929;28;20093;-77
2023/04/07 17:58:01;;;;;;;196.70;61.97;;;;;;;;;;10513375;28;20039;-78
2023/04/07 18:03:02;;;;;;;154.70;50.40;;;;;;;;;;10524213;28;20051;-79
2023/04/07 18:08:04;;;;;;;124.23;42.83;;;;;;;;;;10527694;28;20028;-76
2023/04/07 18:13:05;;;;;;;179.50;59.27;;;;;;;;;;10528685;28;20020;-77
2023/04/07 18:18:06;;;;;;;263.07;82.00;;;;;;;;;;10530174;28;20083;-76
2023/04/07 18:23:10;;;;;;;162.27;51.60;;;;;;;;;;10528104;28;20126;-77
2023/04/07 18:28:11;;;;;;;176.00;55.93;;;;;;;;;;10532185;28;20031;-76
2023/04/07 18:33:13;;;;;;;219.43;62.30;;;;;;;;;;10530318;28;20039;-76
2023/04/07 18:38:16;;;;;;;129.67;45.83;;;;;;;;;;10532464;28;20134;-77
2023/04/07 18:43:17;;;;;;;121.47;39.73;;;;;;;;;;10529521;28;20532;-77
2023/04/07 18:48:20;;;;;;;196.27;58.37;;;;;;;;;;10541870;28;20105;-76
2023/04/07 18:53:21;;;;;;;180.07;61.53;;;;;;;;;;10507484;28;20058;-77
2023/04/07 18:58:25;;;;;;;143.73;48.80;;;;;;;;;;10524948;28;20485;-77
2023/04/07 19:03:26;;;;;;;140.00;48.23;;;;;;;;;;10540291;28;20044;-76
2023/04/07 19:08:27;;;;;;;128.00;46.23;;;;;;;;;;10543408;28;20032;-76
2023/04/07 19:13:30;;;;;;;186.67;51.87;;;;;;;;;;10530763;28;20036;-76
2023/04/07 19:18:30;;;;;;;145.27;46.00;;;;;;;;;;10531130;28;20032;-76
2023/04/07 19:23:31;;;;;;;107.13;37.33;;;;;;;;;;10531146;28;20097;-76
2023/04/07 19:28:33;;;;;;;124.63;40.70;;;;;;;;;;10520989;28;20038;-76
2023/04/07 19:33:34;;;;;;;117.60;39.87;;;;;;;;;;10520117;28;20369;-75
2023/04/07 19:38:36;;;;;;;159.90;42.60;;;;;;;;;;10543396;28;20131;-77
2023/04/07 19:43:37;;;;;;;101.77;36.47;;;;;;;;;;10525548;28;20062;-77
2023/04/07 19:48:38;;;;;;;104.53;30.77;;;;;;;;;;10529818;28;20032;-77
2023/04/07 19:53:40;;;;;;;97.67;32.50;;;;;;;;;;10513002;28;20115;-78
2023/04/07 19:58:41;;;;;;;107.87;31.17;;;;;;;;;;10530539;28;20028;-78
2023/04/07 20:03:42;;;;;;;116.37;36.20;;;;;;;;;;10513117;28;20120;-77
2023/04/07 20:08:43;;;;;;;164.13;48.80;;;;;;;;;;10550852;27;20020;-77
2023/04/07 20:13:44;;;;;;;171.77;47.20;;;;;;;;;;10531044;28;20062;-77
2023/04/07 20:18:45;;;;;;;183.20;46.20;;;;;;;;;;10529243;28;20097;-79
2023/04/07 20:23:49;;;;;;;149.67;41.13;;;;;;;;;;10531027;28;20040;-77
2023/04/07 20:28:50;;;;;;;136.43;40.63;;;;;;;;;;10528767;28;20040;-76
2023/04/07 20:33:51;;;;;;;94.83;32.93;;;;;;;;;;10543039;28;20035;-76
2023/04/07 20:38:53;;;;;;;97.67;31.83;;;;;;;;;;10532937;28;20109;-76
2023/04/07 20:43:54;;;;;;;83.57;32.43;;;;;;;;;;10528353;28;20043;-77
2023/04/07 20:48:56;;;;;;;72.43;27.13;;;;;;;;;;10527707;28;20038;-77
2023/04/07 20:53:57;;;;;;;98.20;35.37;;;;;;;;;;10524364;28;20024;-76
2023/04/07 20:59:00;;;;;;;87.60;34.70;;;;;;;;;;10501112;28;20077;-76
2023/04/07 21:04:03;;;;;;;90.47;33.63;;;;;;;;;;10489625;28;20046;-76
2023/04/07 21:09:06;;;;;;;86.07;33.00;;;;;;;;;;10498479;28;20024;-77
2023/04/07 21:14:08;;;;;;;79.13;31.87;;;;;;;;;;10498434;28;20058;-78
2023/04/07 21:19:10;;;;;;;73.13;28.10;;;;;;;;;;10495607;28;20035;-76
2023/04/07 21:24:12;;;;;;;69.27;27.10;;;;;;;;;;10523301;28;20039;-77
2023/04/07 21:29:14;;;;;;;62.83;25.10;;;;;;;;;;10507305;28;20032;-77
2023/04/07 21:34:15;;;;;;;55.17;24.43;;;;;;;;;;10524630;28;20028;-76
2023/04/07 21:39:16;;;;;;;57.63;25.03;;;;;;;;;;10502546;28;20040;-76
2023/04/07 21:44:19;;;;;;;55.87;21.77;;;;;;;;;;10485689;28;20594;-77
2023/04/07 21:49:21;;;;;;;78.80;31.27;;;;;;;;;;10485033;28;20066;-76
2023/04/07 21:54:23;;;;;;;91.90;37.23;;;;;;;;;;10486173;28;20040;-77
2023/04/07 21:59:26;;;;;;;75.57;30.00;;;;;;;;;;10474200;28;20023;-76
2023/04/07 22:04:27;;;;;;;68.67;29.43;;;;;;;;;;10466981;28;20047;-77
2023/04/07 22:09:28;;;;;;;76.10;31.37;;;;;;;;;;10489522;28;20036;-76
2023/04/07 22:14:29;;;;;;;67.07;29.27;;;;;;;;;;10492741;28;20036;-77
2023/04/07 22:19:30;;;;;;;65.40;28.57;;;;;;;;;;10491370;28;20032;-76
2023/04/07 22:24:31;;;;;;;93.20;38.33;;;;;;;;;;10503677;28;20036;-76
2023/04/07 22:29:32;;;;;;;65.90;28.97;;;;;;;;;;10491421;28;20115;-77
2023/04/07 22:34:33;;;;;;;68.20;29.17;;;;;;;;;;10491552;28;20081;-76
2023/04/07 22:39:34;;;;;;;74.30;31.67;;;;;;;;;;10520585;28;20062;-76
2023/04/07 22:44:35;;;;;;;68.87;30.10;;;;;;;;;;10533825;28;20044;-75
2023/04/07 22:49:36;;;;;;;44.97;19.90;;;;;;;;;;10532313;28;20032;-76
2023/04/07 22:54:37;;;;;;;54.13;23.90;;;;;;;;;;10533842;28;20036;-77
2023/04/07 22:59:39;;;;;;;54.47;25.93;;;;;;;;;;10532367;28;20032;-76
2023/04/07 23:04:40;;;;;;;66.53;31.67;;;;;;;;;;10610183;22;20104;-77
2023/04/07 23:09:41;;;;;;;51.40;25.20;;;;;;;;;;10613356;27;20482;-75
2023/04/07 23:14:42;;;;;;;49.00;20.20;;;;;;;;;;10586750;27;20031;-77
2023/04/07 23:19:43;;;;;;;48.00;22.33;;;;;;;;;;10628709;27;20034;-76
2023/04/07 23:24:44;;;;;;;53.37;24.30;;;;;;;;;;10624474;27;20042;-77
2023/04/07 23:29:45;;;;;;;55.90;27.13;;;;;;;;;;10629808;27;20034;-76
2023/04/07 23:34:46;;;;;;;53.13;24.07;;;;;;;;;;10628489;27;20088;-75
2023/04/07 23:39:47;;;;;;;57.77;23.67;;;;;;;;;;10626044;27;20041;-76
2023/04/07 23:44:48;;;;;;;47.17;22.00;;;;;;;;;;10633579;27;20038;-76
2023/04/07 23:49:49;;;;;;;49.57;21.13;;;;;;;;;;10620080;27;20045;-77
2023/04/07 23:54:50;;;;;;;56.07;23.23;;;;;;;;;;10622570;27;20027;-76
2023/04/07 23:59:51;;;;;;;57.17;25.77;;;;;;;;;;10614898;27;20057;-76
